TAIP14 YCBG-YMES
Flight info
| Callsign | TAIP14 |
|---|---|
| Flight time | 2h 12m |
| Altitude | 6000 |
| Route | VEKLO DCT NUNPA |
| Aircraft | EC35/L-SDFGRY/C |
Departure
| Time | 2026-04-22 08:38 |
|---|---|
| Airport | Cambridge Aerodrome (YCBG) |
Arrival
| Time | 2026-04-22 10:50 |
|---|---|
| Airport | RAAF Base East Sale (YMES) |
| Time | Latitude | Longitude | Altitude | Speed | Heading |
|---|---|---|---|---|---|
| 2026-04-22 08:25 | -42.82877 | 147.47643 | 58 ft | 0 kts | 195° |
| 2026-04-22 08:28 | -42.82877 | 147.47641 | 58 ft | 0 kts | 201° |
| 2026-04-22 08:34 | -42.82870 | 147.47653 | 58 ft | 0 kts | 218° |
| 2026-04-22 08:35 | -42.82877 | 147.47641 | 58 ft | 0 kts | 192° |
| 2026-04-22 08:37 | -42.82860 | 147.47633 | 90 ft | 8 kts | 212° |
| 2026-04-22 08:37 | -42.82766 | 147.47546 | 214 ft | 34 kts | 288° |
| 2026-04-22 08:37 | -42.82605 | 147.47070 | 411 ft | 69 kts | 292° |
| 2026-04-22 08:37 | -42.82390 | 147.46405 | 630 ft | 85 kts | 299° |
| 2026-04-22 08:38 | -42.82092 | 147.45735 | 909 ft | 84 kts | 300° |
| 2026-04-22 08:38 | -42.81809 | 147.44994 | 1112 ft | 91 kts | 296° |
| 2026-04-22 08:38 | -42.81332 | 147.44362 | 1295 ft | 107 kts | 333° |
| 2026-04-22 08:38 | -42.80551 | 147.44397 | 1425 ft | 119 kts | 14° |
| 2026-04-22 08:39 | -42.79872 | 147.45016 | 1646 ft | 118 kts | 32° |
| 2026-04-22 08:39 | -42.79261 | 147.45750 | 1867 ft | 116 kts | 32° |
| 2026-04-22 08:39 | -42.78629 | 147.46419 | 2098 ft | 112 kts | 26° |
| 2026-04-22 08:39 | -42.77977 | 147.46965 | 2320 ft | 109 kts | 19° |
| 2026-04-22 08:40 | -42.77294 | 147.47411 | 2572 ft | 111 kts | 14° |
| 2026-04-22 08:40 | -42.76553 | 147.47778 | 2807 ft | 114 kts | 8° |
| 2026-04-22 08:40 | -42.75791 | 147.48073 | 3038 ft | 111 kts | 4° |
| 2026-04-22 08:40 | -42.75046 | 147.48322 | 3280 ft | 112 kts | 2° |
| 2026-04-22 08:41 | -42.74276 | 147.48557 | 3515 ft | 115 kts | 1° |
| 2026-04-22 08:41 | -42.73473 | 147.48778 | 3732 ft | 117 kts | 0° |
| 2026-04-22 08:41 | -42.72685 | 147.48988 | 3956 ft | 115 kts | 359° |
| 2026-04-22 08:41 | -42.71903 | 147.49200 | 4183 ft | 114 kts | 360° |
| 2026-04-22 08:42 | -42.71119 | 147.49419 | 4419 ft | 115 kts | 360° |
| 2026-04-22 08:42 | -42.70330 | 147.49635 | 4645 ft | 115 kts | 360° |
| 2026-04-22 08:42 | -42.69548 | 147.49850 | 4875 ft | 115 kts | 359° |
| 2026-04-22 08:42 | -42.68756 | 147.50078 | 5113 ft | 116 kts | 1° |
| 2026-04-22 08:43 | -42.67961 | 147.50310 | 5349 ft | 119 kts | 1° |
| 2026-04-22 08:43 | -42.67135 | 147.50545 | 5572 ft | 121 kts | 0° |
| 2026-04-22 08:43 | -42.66323 | 147.50771 | 5796 ft | 120 kts | 360° |
| 2026-04-22 08:43 | -42.65498 | 147.51000 | 6012 ft | 121 kts | 359° |
| 2026-04-22 08:44 | -42.64642 | 147.51224 | 6073 ft | 131 kts | 359° |
| 2026-04-22 08:44 | -42.63717 | 147.51440 | 6068 ft | 138 kts | 358° |
| 2026-04-22 08:44 | -42.62761 | 147.51659 | 6067 ft | 139 kts | 359° |
| 2026-04-22 08:44 | -42.61801 | 147.51883 | 6063 ft | 139 kts | 359° |
| 2026-04-22 08:45 | -42.60876 | 147.52122 | 6130 ft | 134 kts | 3° |
| 2026-04-22 08:45 | -42.59922 | 147.52432 | 6068 ft | 145 kts | 5° |
| 2026-04-22 08:45 | -42.58934 | 147.52762 | 6076 ft | 146 kts | 5° |
| 2026-04-22 08:45 | -42.57943 | 147.53079 | 6078 ft | 146 kts | 4° |
| 2026-04-22 08:46 | -42.56945 | 147.53383 | 6080 ft | 146 kts | 3° |
| 2026-04-22 08:46 | -42.55947 | 147.53674 | 6083 ft | 146 kts | 3° |
| 2026-04-22 08:46 | -42.54949 | 147.53960 | 6084 ft | 147 kts | 2° |
| 2026-04-22 08:46 | -42.53961 | 147.54215 | 6054 ft | 142 kts | 358° |
| 2026-04-22 08:47 | -42.53023 | 147.54411 | 6068 ft | 130 kts | 357° |
| 2026-04-22 08:47 | -42.52151 | 147.54593 | 6084 ft | 124 kts | 358° |
| 2026-04-22 08:47 | -42.51302 | 147.54785 | 6084 ft | 123 kts | 358° |
| 2026-04-22 08:47 | -42.50465 | 147.54990 | 6086 ft | 122 kts | 359° |
| 2026-04-22 08:48 | -42.49627 | 147.55205 | 6085 ft | 122 kts | 359° |
| 2026-04-22 08:48 | -42.48792 | 147.55429 | 6088 ft | 121 kts | 359° |
| 2026-04-22 08:48 | -42.47959 | 147.55655 | 6091 ft | 121 kts | 359° |
| 2026-04-22 08:48 | -42.47129 | 147.55882 | 6092 ft | 121 kts | 359° |
| 2026-04-22 08:49 | -42.46299 | 147.56111 | 6091 ft | 122 kts | 359° |
| 2026-04-22 08:49 | -42.45452 | 147.56346 | 6095 ft | 123 kts | 360° |
| 2026-04-22 08:49 | -42.44611 | 147.56587 | 6091 ft | 123 kts | 0° |
| 2026-04-22 08:49 | -42.43773 | 147.56827 | 6089 ft | 124 kts | 1° |
| 2026-04-22 08:50 | -42.42926 | 147.57069 | 6089 ft | 124 kts | 1° |
| 2026-04-22 08:50 | -42.42074 | 147.57309 | 6088 ft | 125 kts | 1° |
| 2026-04-22 08:50 | -42.41211 | 147.57550 | 6090 ft | 125 kts | 0° |
| 2026-04-22 08:50 | -42.40362 | 147.57785 | 6087 ft | 124 kts | 0° |
| 2026-04-22 08:51 | -42.39508 | 147.58025 | 6095 ft | 125 kts | 2° |
| 2026-04-22 08:51 | -42.38665 | 147.58255 | 6052 ft | 121 kts | 359° |
| 2026-04-22 08:51 | -42.37829 | 147.58502 | 6084 ft | 130 kts | 4° |
| 2026-04-22 08:51 | -42.36953 | 147.58784 | 6093 ft | 129 kts | 4° |
| 2026-04-22 08:52 | -42.36066 | 147.59070 | 6090 ft | 131 kts | 5° |
| 2026-04-22 08:52 | -42.35174 | 147.59348 | 6089 ft | 131 kts | 4° |
| 2026-04-22 08:52 | -42.34278 | 147.59611 | 6089 ft | 131 kts | 4° |
| 2026-04-22 08:52 | -42.33391 | 147.59865 | 6091 ft | 130 kts | 3° |
| 2026-04-22 08:53 | -42.32510 | 147.60112 | 6091 ft | 130 kts | 3° |
| 2026-04-22 08:53 | -42.31619 | 147.60358 | 6092 ft | 130 kts | 3° |
| 2026-04-22 08:53 | -42.30731 | 147.60602 | 6089 ft | 131 kts | 3° |
| 2026-04-22 08:53 | -42.29835 | 147.60847 | 6091 ft | 131 kts | 3° |
| 2026-04-22 08:54 | -42.28939 | 147.61093 | 6089 ft | 131 kts | 3° |
| 2026-04-22 08:54 | -42.28042 | 147.61339 | 6089 ft | 131 kts | 4° |
| 2026-04-22 08:54 | -42.27142 | 147.61585 | 6086 ft | 131 kts | 3° |
| 2026-04-22 08:54 | -42.26238 | 147.61832 | 6085 ft | 132 kts | 4° |
| 2026-04-22 08:55 | -42.25338 | 147.62077 | 6084 ft | 132 kts | 4° |
| 2026-04-22 08:55 | -42.24441 | 147.62323 | 6083 ft | 132 kts | 4° |
| 2026-04-22 08:55 | -42.23539 | 147.62570 | 6086 ft | 132 kts | 4° |
| 2026-04-22 08:55 | -42.22628 | 147.62819 | 6085 ft | 133 kts | 4° |
| 2026-04-22 08:56 | -42.21722 | 147.63066 | 6087 ft | 133 kts | 4° |
| 2026-04-22 08:56 | -42.20810 | 147.63315 | 6088 ft | 133 kts | 4° |
| 2026-04-22 08:56 | -42.19894 | 147.63562 | 6039 ft | 136 kts | 4° |
| 2026-04-22 08:56 | -42.18959 | 147.63806 | 5994 ft | 135 kts | 3° |
| 2026-04-22 08:57 | -42.18051 | 147.64047 | 5988 ft | 133 kts | 4° |
| 2026-04-22 08:57 | -42.17142 | 147.64294 | 5990 ft | 132 kts | 4° |
| 2026-04-22 08:57 | -42.16239 | 147.64543 | 5995 ft | 132 kts | 4° |
| 2026-04-22 08:57 | -42.15340 | 147.64793 | 5998 ft | 131 kts | 4° |
| 2026-04-22 08:58 | -42.14443 | 147.65041 | 5999 ft | 131 kts | 3° |
| 2026-04-22 08:58 | -42.13543 | 147.65289 | 6000 ft | 131 kts | 3° |
| 2026-04-22 08:58 | -42.12656 | 147.65533 | 6004 ft | 130 kts | 3° |
| 2026-04-22 08:58 | -42.11768 | 147.65778 | 6005 ft | 129 kts | 3° |
| 2026-04-22 08:59 | -42.10873 | 147.66023 | 6007 ft | 129 kts | 3° |
| 2026-04-22 08:59 | -42.09996 | 147.66263 | 6007 ft | 130 kts | 2° |
| 2026-04-22 08:59 | -42.09101 | 147.66507 | 6008 ft | 130 kts | 3° |
| 2026-04-22 08:59 | -42.08215 | 147.66739 | 6008 ft | 130 kts | 2° |
| 2026-04-22 09:00 | -42.07322 | 147.66921 | 6009 ft | 130 kts | 359° |
| 2026-04-22 09:00 | -42.06425 | 147.67076 | 6010 ft | 130 kts | 359° |
| 2026-04-22 09:00 | -42.05527 | 147.67224 | 6011 ft | 130 kts | 359° |
| 2026-04-22 09:00 | -42.04620 | 147.67374 | 6012 ft | 130 kts | 360° |
| 2026-04-22 09:01 | -42.03727 | 147.67525 | 6011 ft | 130 kts | 359° |
| 2026-04-22 09:01 | -42.02823 | 147.67682 | 6010 ft | 130 kts | 360° |
| 2026-04-22 09:01 | -42.01926 | 147.67839 | 6010 ft | 130 kts | 360° |
| 2026-04-22 09:01 | -42.01019 | 147.68001 | 6009 ft | 130 kts | 359° |
| 2026-04-22 09:02 | -42.00119 | 147.68164 | 6009 ft | 130 kts | 359° |
| 2026-04-22 09:02 | -41.99224 | 147.68326 | 6012 ft | 130 kts | 0° |
| 2026-04-22 09:02 | -41.98312 | 147.68491 | 6009 ft | 131 kts | 0° |
| 2026-04-22 09:02 | -41.97404 | 147.68655 | 6008 ft | 132 kts | 0° |
| 2026-04-22 09:03 | -41.96495 | 147.68819 | 6008 ft | 133 kts | 0° |
| 2026-04-22 09:03 | -41.95575 | 147.68986 | 6005 ft | 133 kts | 360° |
| 2026-04-22 09:03 | -41.94658 | 147.69151 | 6007 ft | 133 kts | 0° |
| 2026-04-22 09:03 | -41.93729 | 147.69319 | 6007 ft | 133 kts | 0° |
| 2026-04-22 09:04 | -41.92821 | 147.69484 | 6008 ft | 133 kts | 360° |
| 2026-04-22 09:04 | -41.91899 | 147.69650 | 6009 ft | 133 kts | 0° |
| 2026-04-22 09:04 | -41.90982 | 147.69815 | 6008 ft | 133 kts | 0° |
| 2026-04-22 09:04 | -41.90062 | 147.69981 | 6010 ft | 133 kts | 0° |
| 2026-04-22 09:05 | -41.89137 | 147.70163 | 6015 ft | 132 kts | 0° |
| 2026-04-22 09:05 | -41.88233 | 147.70329 | 6018 ft | 132 kts | 0° |
| 2026-04-22 09:05 | -41.87315 | 147.70493 | 6018 ft | 133 kts | 0° |
| 2026-04-22 09:05 | -41.86393 | 147.70653 | 6019 ft | 133 kts | 0° |
| 2026-04-22 09:06 | -41.85475 | 147.70815 | 6020 ft | 133 kts | 360° |
| 2026-04-22 09:06 | -41.84558 | 147.70976 | 6017 ft | 133 kts | 360° |
| 2026-04-22 09:06 | -41.83641 | 147.71140 | 6020 ft | 133 kts | 0° |
| 2026-04-22 09:06 | -41.82724 | 147.71303 | 6014 ft | 133 kts | 0° |
| 2026-04-22 09:07 | -41.81810 | 147.71466 | 6012 ft | 133 kts | 0° |
| 2026-04-22 09:07 | -41.80885 | 147.71632 | 6010 ft | 133 kts | 0° |
| 2026-04-22 09:07 | -41.79972 | 147.71799 | 6006 ft | 135 kts | 3° |
| 2026-04-22 09:07 | -41.79036 | 147.71989 | 6013 ft | 135 kts | 1° |
| 2026-04-22 09:08 | -41.78108 | 147.72156 | 6009 ft | 132 kts | 0° |
| 2026-04-22 09:08 | -41.77195 | 147.72313 | 6013 ft | 131 kts | 0° |
| 2026-04-22 09:08 | -41.76288 | 147.72467 | 6013 ft | 131 kts | 0° |
| 2026-04-22 09:08 | -41.75377 | 147.72626 | 6018 ft | 131 kts | 1° |
| 2026-04-22 09:09 | -41.74466 | 147.72789 | 6014 ft | 134 kts | 1° |
| 2026-04-22 09:09 | -41.73528 | 147.72954 | 6017 ft | 135 kts | 1° |
| 2026-04-22 09:09 | -41.72598 | 147.73117 | 6015 ft | 135 kts | 1° |
| 2026-04-22 09:09 | -41.71669 | 147.73280 | 6016 ft | 134 kts | 1° |
| 2026-04-22 09:10 | -41.70742 | 147.73444 | 6020 ft | 134 kts | 1° |
| 2026-04-22 09:10 | -41.69807 | 147.73610 | 6021 ft | 134 kts | 2° |
| 2026-04-22 09:10 | -41.68881 | 147.73776 | 6022 ft | 135 kts | 1° |
| 2026-04-22 09:10 | -41.67951 | 147.73944 | 6022 ft | 136 kts | 2° |
| 2026-04-22 09:11 | -41.67005 | 147.74114 | 6021 ft | 136 kts | 1° |
| 2026-04-22 09:11 | -41.66065 | 147.74283 | 6016 ft | 136 kts | 1° |
| 2026-04-22 09:11 | -41.65121 | 147.74451 | 6015 ft | 136 kts | 2° |
| 2026-04-22 09:11 | -41.64181 | 147.74617 | 6017 ft | 136 kts | 1° |
| 2026-04-22 09:12 | -41.63247 | 147.74783 | 6017 ft | 136 kts | 1° |
| 2026-04-22 09:12 | -41.62300 | 147.74951 | 6016 ft | 136 kts | 1° |
| 2026-04-22 09:12 | -41.61372 | 147.75117 | 6014 ft | 136 kts | 1° |
| 2026-04-22 09:12 | -41.60427 | 147.75287 | 6007 ft | 135 kts | 1° |
| 2026-04-22 09:13 | -41.59501 | 147.75455 | 6005 ft | 134 kts | 1° |
| 2026-04-22 09:13 | -41.58581 | 147.75623 | 6019 ft | 133 kts | 1° |
| 2026-04-22 09:13 | -41.57663 | 147.75789 | 6019 ft | 134 kts | 1° |
| 2026-04-22 09:13 | -41.56734 | 147.75958 | 6022 ft | 134 kts | 1° |
| 2026-04-22 09:14 | -41.55804 | 147.76123 | 6021 ft | 134 kts | 1° |
| 2026-04-22 09:14 | -41.54879 | 147.76286 | 6056 ft | 132 kts | 1° |
| 2026-04-22 09:14 | -41.53944 | 147.76454 | 6023 ft | 136 kts | 1° |
| 2026-04-22 09:14 | -41.53009 | 147.76617 | 6025 ft | 136 kts | 1° |
| 2026-04-22 09:15 | -41.52064 | 147.76782 | 6024 ft | 136 kts | 1° |
| 2026-04-22 09:15 | -41.51124 | 147.76949 | 6021 ft | 136 kts | 2° |
| 2026-04-22 09:15 | -41.50175 | 147.77116 | 6020 ft | 136 kts | 2° |
| 2026-04-22 09:15 | -41.49229 | 147.77284 | 6021 ft | 137 kts | 2° |
| 2026-04-22 09:16 | -41.48284 | 147.77452 | 6020 ft | 136 kts | 2° |
| 2026-04-22 09:16 | -41.47351 | 147.77617 | 6018 ft | 136 kts | 2° |
| 2026-04-22 09:16 | -41.46096 | 147.77838 | 6017 ft | 135 kts | 2° |
| 2026-04-22 09:16 | -41.45174 | 147.78000 | 6019 ft | 134 kts | 2° |
| 2026-04-22 09:17 | -41.44552 | 147.78111 | 6022 ft | 134 kts | 2° |
| 2026-04-22 09:17 | -41.43617 | 147.78279 | 6025 ft | 134 kts | 2° |
| 2026-04-22 09:17 | -41.42687 | 147.78445 | 6025 ft | 135 kts | 2° |
| 2026-04-22 09:17 | -41.41748 | 147.78615 | 6027 ft | 136 kts | 2° |
| 2026-04-22 09:18 | -41.40803 | 147.78786 | 6031 ft | 137 kts | 2° |
| 2026-04-22 09:18 | -41.39852 | 147.78955 | 6036 ft | 137 kts | 1° |
| 2026-04-22 09:18 | -41.38909 | 147.79121 | 6039 ft | 137 kts | 2° |
| 2026-04-22 09:18 | -41.37964 | 147.79288 | 6041 ft | 137 kts | 2° |
| 2026-04-22 09:19 | -41.37021 | 147.79454 | 6041 ft | 137 kts | 2° |
| 2026-04-22 09:19 | -41.36071 | 147.79622 | 6039 ft | 137 kts | 1° |
| 2026-04-22 09:19 | -41.35133 | 147.79785 | 6037 ft | 136 kts | 2° |
| 2026-04-22 09:19 | -41.34184 | 147.79952 | 6038 ft | 136 kts | 2° |
| 2026-04-22 09:20 | -41.32940 | 147.80171 | 6045 ft | 135 kts | 2° |
| 2026-04-22 09:20 | -41.32323 | 147.80280 | 6046 ft | 135 kts | 2° |
| 2026-04-22 09:20 | -41.31392 | 147.80444 | 6044 ft | 134 kts | 2° |
| 2026-04-22 09:20 | -41.30461 | 147.80608 | 6043 ft | 134 kts | 2° |
| 2026-04-22 09:21 | -41.29538 | 147.80771 | 6043 ft | 134 kts | 3° |
| 2026-04-22 09:21 | -41.28611 | 147.80937 | 6043 ft | 135 kts | 2° |
| 2026-04-22 09:21 | -41.27673 | 147.81105 | 6041 ft | 136 kts | 2° |
| 2026-04-22 09:21 | -41.26725 | 147.81276 | 6042 ft | 137 kts | 2° |
| 2026-04-22 09:22 | -41.25782 | 147.81444 | 6038 ft | 137 kts | 2° |
| 2026-04-22 09:22 | -41.24839 | 147.81610 | 6033 ft | 137 kts | 2° |
| 2026-04-22 09:22 | -41.23888 | 147.81778 | 6033 ft | 137 kts | 2° |
| 2026-04-22 09:22 | -41.22938 | 147.81944 | 6037 ft | 137 kts | 2° |
| 2026-04-22 09:23 | -41.21986 | 147.82111 | 6038 ft | 137 kts | 3° |
| 2026-04-22 09:23 | -41.21038 | 147.82277 | 6040 ft | 136 kts | 2° |
| 2026-04-22 09:23 | -41.20098 | 147.82440 | 6041 ft | 136 kts | 4° |
| 2026-04-22 09:23 | -41.19163 | 147.82603 | 6045 ft | 135 kts | 4° |
| 2026-04-22 09:24 | -41.18227 | 147.82767 | 6044 ft | 135 kts | 3° |
| 2026-04-22 09:24 | -41.17298 | 147.82932 | 6046 ft | 135 kts | 4° |
| 2026-04-22 09:24 | -41.16359 | 147.83099 | 6046 ft | 136 kts | 4° |
| 2026-04-22 09:24 | -41.15416 | 147.83269 | 6046 ft | 137 kts | 3° |
| 2026-04-22 09:25 | -41.14468 | 147.83437 | 6048 ft | 137 kts | 4° |
| 2026-04-22 09:25 | -41.13520 | 147.83604 | 6045 ft | 138 kts | 3° |
| 2026-04-22 09:25 | -41.12561 | 147.83772 | 6047 ft | 138 kts | 3° |
| 2026-04-22 09:25 | -41.11613 | 147.83939 | 6043 ft | 138 kts | 3° |
| 2026-04-22 09:26 | -41.10667 | 147.84105 | 6045 ft | 137 kts | 3° |
| 2026-04-22 09:26 | -41.09706 | 147.84273 | 6049 ft | 137 kts | 3° |
| 2026-04-22 09:26 | -41.08771 | 147.84435 | 6049 ft | 137 kts | 3° |
| 2026-04-22 09:26 | -41.07819 | 147.84601 | 6050 ft | 136 kts | 4° |
| 2026-04-22 09:27 | -41.06881 | 147.84764 | 6046 ft | 136 kts | 3° |
| 2026-04-22 09:27 | -41.05950 | 147.84927 | 6043 ft | 135 kts | 4° |
| 2026-04-22 09:27 | -41.05008 | 147.85092 | 6048 ft | 135 kts | 4° |
| 2026-04-22 09:27 | -41.04086 | 147.85255 | 6048 ft | 134 kts | 4° |
| 2026-04-22 09:28 | -41.03152 | 147.85420 | 6051 ft | 135 kts | 4° |
| 2026-04-22 09:28 | -41.02214 | 147.85586 | 6048 ft | 135 kts | 3° |
| 2026-04-22 09:28 | -41.01276 | 147.85754 | 6054 ft | 136 kts | 3° |
| 2026-04-22 09:28 | -41.00339 | 147.85921 | 6057 ft | 137 kts | 3° |
| 2026-04-22 09:29 | -40.99387 | 147.86087 | 6055 ft | 138 kts | 3° |
| 2026-04-22 09:29 | -40.98429 | 147.86253 | 6055 ft | 137 kts | 3° |
| 2026-04-22 09:29 | -40.97484 | 147.86417 | 6054 ft | 137 kts | 3° |
| 2026-04-22 09:29 | -40.96537 | 147.86580 | 6056 ft | 136 kts | 3° |
| 2026-04-22 09:30 | -40.95606 | 147.86742 | 6054 ft | 136 kts | 4° |
| 2026-04-22 09:30 | -40.94662 | 147.86905 | 6055 ft | 135 kts | 3° |
| 2026-04-22 09:30 | -40.93731 | 147.87068 | 6057 ft | 135 kts | 4° |
| 2026-04-22 09:30 | -40.92794 | 147.87233 | 6057 ft | 135 kts | 4° |
| 2026-04-22 09:31 | -40.91864 | 147.87396 | 6060 ft | 135 kts | 4° |
| 2026-04-22 09:31 | -40.90931 | 147.87563 | 6065 ft | 135 kts | 4° |
| 2026-04-22 09:31 | -40.89999 | 147.87727 | 6070 ft | 137 kts | 4° |
| 2026-04-22 09:31 | -40.89040 | 147.87897 | 6073 ft | 137 kts | 4° |
| 2026-04-22 09:32 | -40.88095 | 147.88063 | 6074 ft | 138 kts | 4° |
| 2026-04-22 09:32 | -40.87260 | 147.88208 | 6076 ft | 138 kts | 4° |
| 2026-04-22 09:33 | -40.86977 | 147.88258 | 6072 ft | 138 kts | 4° |
| 2026-04-22 09:33 | -40.86332 | 147.88370 | 6078 ft | 138 kts | 4° |
| 2026-04-22 09:34 | -40.85383 | 147.88535 | 6077 ft | 138 kts | 4° |
| 2026-04-22 09:34 | -40.84421 | 147.88701 | 6076 ft | 138 kts | 4° |
| 2026-04-22 09:34 | -40.83471 | 147.88864 | 6075 ft | 138 kts | 3° |
| 2026-04-22 09:35 | -40.81572 | 147.89175 | 6076 ft | 137 kts | 2° |
| 2026-04-22 09:35 | -40.80630 | 147.89329 | 6075 ft | 137 kts | 3° |
| 2026-04-22 09:35 | -40.79360 | 147.89542 | 6070 ft | 136 kts | 3° |
| 2026-04-22 09:35 | -40.78421 | 147.89700 | 6065 ft | 136 kts | 3° |
| 2026-04-22 09:36 | -40.77481 | 147.89861 | 6060 ft | 136 kts | 3° |
| 2026-04-22 09:36 | -40.76856 | 147.89969 | 6059 ft | 136 kts | 3° |
| 2026-04-22 09:36 | -40.75908 | 147.90135 | 6060 ft | 137 kts | 3° |
| 2026-04-22 09:36 | -40.74971 | 147.90300 | 6060 ft | 137 kts | 3° |
| 2026-04-22 09:37 | -40.73698 | 147.90524 | 6060 ft | 139 kts | 3° |
| 2026-04-22 09:37 | -40.73051 | 147.90637 | 6058 ft | 139 kts | 3° |
| 2026-04-22 09:37 | -40.72086 | 147.90805 | 6059 ft | 138 kts | 3° |
| 2026-04-22 09:37 | -40.71138 | 147.90967 | 6057 ft | 138 kts | 3° |
| 2026-04-22 09:38 | -40.70183 | 147.91132 | 6058 ft | 138 kts | 3° |
| 2026-04-22 09:38 | -40.69226 | 147.91296 | 6055 ft | 137 kts | 2° |
| 2026-04-22 09:38 | -40.68278 | 147.91461 | 6059 ft | 137 kts | 3° |
| 2026-04-22 09:38 | -40.67333 | 147.91625 | 6060 ft | 137 kts | 3° |
| 2026-04-22 09:39 | -40.66393 | 147.91788 | 6058 ft | 136 kts | 3° |
| 2026-04-22 09:39 | -40.65442 | 147.91952 | 6060 ft | 137 kts | 3° |
| 2026-04-22 09:39 | -40.64497 | 147.92119 | 6057 ft | 138 kts | 4° |
| 2026-04-22 09:39 | -40.63546 | 147.92285 | 6057 ft | 138 kts | 4° |
| 2026-04-22 09:40 | -40.62591 | 147.92453 | 6059 ft | 139 kts | 4° |
| 2026-04-22 09:40 | -40.61624 | 147.92622 | 6060 ft | 140 kts | 3° |
| 2026-04-22 09:40 | -40.60653 | 147.92793 | 6069 ft | 140 kts | 4° |
| 2026-04-22 09:40 | -40.59688 | 147.92967 | 6065 ft | 139 kts | 4° |
| 2026-04-22 09:41 | -40.58728 | 147.93141 | 6056 ft | 140 kts | 4° |
| 2026-04-22 09:41 | -40.57767 | 147.93315 | 6066 ft | 139 kts | 4° |
| 2026-04-22 09:41 | -40.56482 | 147.93545 | 6072 ft | 139 kts | 4° |
| 2026-04-22 09:41 | -40.55839 | 147.93658 | 6075 ft | 139 kts | 4° |
| 2026-04-22 09:42 | -40.54880 | 147.93826 | 6077 ft | 139 kts | 4° |
| 2026-04-22 09:42 | -40.53921 | 147.93993 | 6078 ft | 139 kts | 4° |
| 2026-04-22 09:42 | -40.52962 | 147.94161 | 6077 ft | 139 kts | 4° |
| 2026-04-22 09:42 | -40.52005 | 147.94327 | 6077 ft | 140 kts | 4° |
| 2026-04-22 09:43 | -40.51036 | 147.94496 | 6076 ft | 140 kts | 5° |
| 2026-04-22 09:43 | -40.50066 | 147.94664 | 6076 ft | 141 kts | 5° |
| 2026-04-22 09:43 | -40.49084 | 147.94833 | 6079 ft | 141 kts | 4° |
| 2026-04-22 09:43 | -40.48119 | 147.94998 | 6080 ft | 141 kts | 4° |
| 2026-04-22 09:44 | -40.47145 | 147.95165 | 6080 ft | 141 kts | 4° |
| 2026-04-22 09:44 | -40.46164 | 147.95332 | 6076 ft | 140 kts | 4° |
| 2026-04-22 09:44 | -40.45201 | 147.95497 | 6070 ft | 140 kts | 4° |
| 2026-04-22 09:44 | -40.44228 | 147.95664 | 6066 ft | 140 kts | 4° |
| 2026-04-22 09:45 | -40.43266 | 147.95828 | 6059 ft | 140 kts | 4° |
| 2026-04-22 09:45 | -40.42285 | 147.95998 | 6058 ft | 140 kts | 4° |
| 2026-04-22 09:45 | -40.41327 | 147.96162 | 6060 ft | 140 kts | 4° |
| 2026-04-22 09:45 | -40.40363 | 147.96327 | 6059 ft | 139 kts | 4° |
| 2026-04-22 09:46 | -40.39402 | 147.96493 | 6060 ft | 139 kts | 4° |
| 2026-04-22 09:46 | -40.38123 | 147.96713 | 6058 ft | 139 kts | 4° |
| 2026-04-22 09:46 | -40.37477 | 147.96825 | 6058 ft | 140 kts | 5° |
| 2026-04-22 09:46 | -40.36508 | 147.96994 | 6057 ft | 140 kts | 5° |
| 2026-04-22 09:47 | -40.35201 | 147.97223 | 6059 ft | 142 kts | 5° |
| 2026-04-22 09:47 | -40.34547 | 147.97336 | 6058 ft | 142 kts | 5° |
| 2026-04-22 09:47 | -40.33564 | 147.97505 | 6059 ft | 142 kts | 5° |
| 2026-04-22 09:47 | -40.32585 | 147.97672 | 6058 ft | 142 kts | 4° |
| 2026-04-22 09:48 | -40.31600 | 147.97839 | 6058 ft | 142 kts | 4° |
| 2026-04-22 09:48 | -40.30630 | 147.98003 | 6059 ft | 141 kts | 4° |
| 2026-04-22 09:48 | -40.29656 | 147.98169 | 6058 ft | 141 kts | 5° |
| 2026-04-22 09:48 | -40.28348 | 147.98392 | 6058 ft | 141 kts | 5° |
| 2026-04-22 09:49 | -40.27373 | 147.98560 | 6059 ft | 141 kts | 5° |
| 2026-04-22 09:49 | -40.26727 | 147.98671 | 6058 ft | 141 kts | 5° |
| 2026-04-22 09:49 | -40.25752 | 147.98839 | 6060 ft | 141 kts | 5° |
| 2026-04-22 09:49 | -40.24776 | 147.99005 | 6059 ft | 141 kts | 5° |
| 2026-04-22 09:50 | -40.23796 | 147.99175 | 6059 ft | 141 kts | 5° |
| 2026-04-22 09:50 | -40.22810 | 147.99344 | 6059 ft | 142 kts | 5° |
| 2026-04-22 09:50 | -40.21836 | 147.99512 | 6057 ft | 143 kts | 5° |
| 2026-04-22 09:50 | -40.20850 | 147.99681 | 6058 ft | 143 kts | 5° |
| 2026-04-22 09:51 | -40.19855 | 147.99850 | 6056 ft | 143 kts | 5° |
| 2026-04-22 09:51 | -40.18870 | 148.00018 | 6058 ft | 143 kts | 5° |
| 2026-04-22 09:51 | -40.17880 | 148.00183 | 6059 ft | 143 kts | 3° |
| 2026-04-22 09:51 | -40.16558 | 148.00391 | 6058 ft | 142 kts | 4° |
| 2026-04-22 09:52 | -40.15903 | 148.00496 | 6058 ft | 142 kts | 3° |
| 2026-04-22 09:52 | -40.14923 | 148.00650 | 6054 ft | 141 kts | 4° |
| 2026-04-22 09:52 | -40.13946 | 148.00806 | 6055 ft | 141 kts | 4° |
| 2026-04-22 09:52 | -40.12971 | 148.00964 | 6055 ft | 140 kts | 4° |
| 2026-04-22 09:53 | -40.12001 | 148.01125 | 6054 ft | 141 kts | 4° |
| 2026-04-22 09:53 | -40.11019 | 148.01296 | 6058 ft | 141 kts | 5° |
| 2026-04-22 09:53 | -40.10043 | 148.01466 | 6059 ft | 141 kts | 4° |
| 2026-04-22 09:53 | -40.09070 | 148.01303 | 6069 ft | 140 kts | 338° |
| 2026-04-22 09:54 | -40.08147 | 148.00908 | 6058 ft | 142 kts | 338° |
| 2026-04-22 09:54 | -40.06894 | 148.00363 | 6063 ft | 142 kts | 338° |
| 2026-04-22 09:54 | -40.06264 | 148.00089 | 6064 ft | 142 kts | 338° |
| 2026-04-22 09:54 | -40.05324 | 147.99675 | 6062 ft | 142 kts | 338° |
| 2026-04-22 09:55 | -40.04387 | 147.99263 | 6073 ft | 142 kts | 338° |
| 2026-04-22 09:55 | -40.03442 | 147.98842 | 6077 ft | 142 kts | 337° |
| 2026-04-22 09:55 | -40.02192 | 147.98276 | 6076 ft | 142 kts | 337° |
| 2026-04-22 09:55 | -40.01578 | 147.97996 | 6075 ft | 141 kts | 337° |
| 2026-04-22 09:56 | -40.00647 | 147.97571 | 6075 ft | 140 kts | 336° |
| 2026-04-22 09:56 | -39.99724 | 147.97153 | 6074 ft | 140 kts | 336° |
| 2026-04-22 09:56 | -39.98796 | 147.96736 | 6076 ft | 140 kts | 337° |
| 2026-04-22 09:56 | -39.97873 | 147.96327 | 6079 ft | 140 kts | 336° |
| 2026-04-22 09:57 | -39.96936 | 147.95911 | 6078 ft | 140 kts | 337° |
| 2026-04-22 09:57 | -39.96021 | 147.95502 | 6076 ft | 140 kts | 336° |
| 2026-04-22 09:57 | -39.95082 | 147.95087 | 6076 ft | 141 kts | 338° |
| 2026-04-22 09:57 | -39.94149 | 147.94678 | 6077 ft | 142 kts | 337° |
| 2026-04-22 09:58 | -39.93210 | 147.94258 | 6078 ft | 142 kts | 336° |
| 2026-04-22 09:58 | -39.91961 | 147.93698 | 6076 ft | 142 kts | 337° |
| 2026-04-22 09:58 | -39.91328 | 147.93416 | 6076 ft | 142 kts | 338° |
| 2026-04-22 09:58 | -39.90388 | 147.92998 | 6074 ft | 142 kts | 337° |
| 2026-04-22 09:59 | -39.89441 | 147.92577 | 6075 ft | 142 kts | 338° |
| 2026-04-22 09:59 | -39.88509 | 147.92166 | 6073 ft | 142 kts | 337° |
| 2026-04-22 09:59 | -39.87575 | 147.91750 | 6066 ft | 141 kts | 337° |
| 2026-04-22 09:59 | -39.86637 | 147.91330 | 6060 ft | 141 kts | 338° |
| 2026-04-22 10:00 | -39.85703 | 147.90916 | 6059 ft | 141 kts | 337° |
| 2026-04-22 10:00 | -39.84779 | 147.90506 | 6055 ft | 141 kts | 337° |
| 2026-04-22 10:00 | -39.83847 | 147.90094 | 6058 ft | 141 kts | 336° |
| 2026-04-22 10:00 | -39.82916 | 147.89682 | 6058 ft | 141 kts | 337° |
| 2026-04-22 10:01 | -39.81981 | 147.89269 | 6053 ft | 142 kts | 336° |
| 2026-04-22 10:01 | -39.81039 | 147.88853 | 6057 ft | 142 kts | 336° |
| 2026-04-22 10:01 | -39.80105 | 147.88440 | 6055 ft | 142 kts | 336° |
| 2026-04-22 10:01 | -39.79172 | 147.88026 | 6057 ft | 143 kts | 337° |
| 2026-04-22 10:02 | -39.78225 | 147.87608 | 6057 ft | 143 kts | 338° |
| 2026-04-22 10:02 | -39.77276 | 147.87189 | 6057 ft | 143 kts | 338° |
| 2026-04-22 10:02 | -39.76336 | 147.86774 | 6058 ft | 143 kts | 338° |
| 2026-04-22 10:02 | -39.75396 | 147.86357 | 6055 ft | 143 kts | 338° |
| 2026-04-22 10:03 | -39.74448 | 147.85936 | 6057 ft | 142 kts | 337° |
| 2026-04-22 10:03 | -39.73517 | 147.85522 | 6057 ft | 142 kts | 337° |
| 2026-04-22 10:03 | -39.72573 | 147.85106 | 6058 ft | 142 kts | 336° |
| 2026-04-22 10:03 | -39.71637 | 147.84689 | 6056 ft | 142 kts | 337° |
| 2026-04-22 10:04 | -39.70702 | 147.84276 | 6058 ft | 142 kts | 337° |
| 2026-04-22 10:04 | -39.69450 | 147.83725 | 6055 ft | 142 kts | 337° |
| 2026-04-22 10:04 | -39.68822 | 147.83449 | 6057 ft | 143 kts | 338° |
| 2026-04-22 10:04 | -39.67548 | 147.82944 | 6046 ft | 144 kts | 344° |
| 2026-04-22 10:05 | -39.66900 | 147.82756 | 6058 ft | 143 kts | 343° |
| 2026-04-22 10:05 | -39.65921 | 147.82469 | 6056 ft | 144 kts | 343° |
| 2026-04-22 10:05 | -39.64942 | 147.82185 | 6049 ft | 144 kts | 346° |
| 2026-04-22 10:05 | -39.63940 | 147.82155 | 6041 ft | 144 kts | 4° |
| 2026-04-22 10:06 | -39.62947 | 147.82114 | 6063 ft | 143 kts | 348° |
| 2026-04-22 10:06 | -39.61974 | 147.81786 | 6056 ft | 144 kts | 339° |
| 2026-04-22 10:06 | -39.61029 | 147.81370 | 6055 ft | 143 kts | 337° |
| 2026-04-22 10:06 | -39.60088 | 147.80951 | 6054 ft | 143 kts | 338° |
| 2026-04-22 10:07 | -39.58815 | 147.80429 | 6053 ft | 143 kts | 339° |
| 2026-04-22 10:07 | -39.57848 | 147.80069 | 6052 ft | 143 kts | 341° |
| 2026-04-22 10:07 | -39.56884 | 147.79738 | 6056 ft | 143 kts | 342° |
| 2026-04-22 10:07 | -39.56239 | 147.79526 | 6056 ft | 143 kts | 342° |
| 2026-04-22 10:08 | -39.55267 | 147.79216 | 6055 ft | 144 kts | 342° |
| 2026-04-22 10:08 | -39.54296 | 147.78915 | 6053 ft | 144 kts | 343° |
| 2026-04-22 10:08 | -39.52994 | 147.78516 | 6057 ft | 144 kts | 344° |
| 2026-04-22 10:08 | -39.52342 | 147.78319 | 6061 ft | 144 kts | 343° |
| 2026-04-22 10:09 | -39.51033 | 147.77924 | 6059 ft | 145 kts | 345° |
| 2026-04-22 10:09 | -39.50382 | 147.77734 | 6060 ft | 145 kts | 345° |
| 2026-04-22 10:09 | -39.49385 | 147.77446 | 6056 ft | 145 kts | 345° |
| 2026-04-22 10:09 | -39.48402 | 147.77159 | 6054 ft | 145 kts | 345° |
| 2026-04-22 10:10 | -39.47409 | 147.76865 | 6051 ft | 145 kts | 344° |
| 2026-04-22 10:10 | -39.46100 | 147.76472 | 6053 ft | 145 kts | 344° |
| 2026-04-22 10:10 | -39.45446 | 147.76274 | 6055 ft | 145 kts | 344° |
| 2026-04-22 10:10 | -39.44461 | 147.75975 | 6058 ft | 145 kts | 344° |
| 2026-04-22 10:11 | -39.43487 | 147.75679 | 6058 ft | 145 kts | 344° |
| 2026-04-22 10:11 | -39.42496 | 147.75378 | 6060 ft | 145 kts | 344° |
| 2026-04-22 10:11 | -39.41514 | 147.75079 | 6061 ft | 146 kts | 344° |
| 2026-04-22 10:11 | -39.40519 | 147.74774 | 6059 ft | 146 kts | 344° |
| 2026-04-22 10:12 | -39.39201 | 147.74371 | 6061 ft | 145 kts | 344° |
| 2026-04-22 10:12 | -39.38540 | 147.74168 | 6059 ft | 146 kts | 344° |
| 2026-04-22 10:12 | -39.37555 | 147.73868 | 6061 ft | 146 kts | 344° |
| 2026-04-22 10:12 | -39.36568 | 147.73567 | 6059 ft | 146 kts | 344° |
| 2026-04-22 10:13 | -39.35583 | 147.73265 | 6059 ft | 146 kts | 344° |
| 2026-04-22 10:13 | -39.34592 | 147.72965 | 6060 ft | 146 kts | 343° |
| 2026-04-22 10:13 | -39.33602 | 147.72661 | 6057 ft | 146 kts | 343° |
| 2026-04-22 10:13 | -39.32281 | 147.72258 | 6056 ft | 145 kts | 343° |
| 2026-04-22 10:14 | -39.31625 | 147.72057 | 6055 ft | 145 kts | 343° |
| 2026-04-22 10:14 | -39.30638 | 147.71762 | 6056 ft | 145 kts | 344° |
| 2026-04-22 10:14 | -39.29654 | 147.71468 | 6054 ft | 145 kts | 344° |
| 2026-04-22 10:14 | -39.28668 | 147.71168 | 6057 ft | 145 kts | 344° |
| 2026-04-22 10:15 | -39.27695 | 147.70871 | 6058 ft | 145 kts | 345° |
| 2026-04-22 10:15 | -39.26701 | 147.70566 | 6057 ft | 145 kts | 345° |
| 2026-04-22 10:15 | -39.25724 | 147.70268 | 6059 ft | 145 kts | 345° |
| 2026-04-22 10:15 | -39.24742 | 147.69969 | 6057 ft | 145 kts | 345° |
| 2026-04-22 10:16 | -39.23756 | 147.69669 | 6056 ft | 145 kts | 346° |
| 2026-04-22 10:16 | -39.22771 | 147.69369 | 6056 ft | 145 kts | 346° |
| 2026-04-22 10:16 | -39.21787 | 147.69070 | 6060 ft | 145 kts | 345° |
| 2026-04-22 10:16 | -39.20806 | 147.68773 | 6060 ft | 145 kts | 345° |
| 2026-04-22 10:17 | -39.19821 | 147.68474 | 6060 ft | 145 kts | 345° |
| 2026-04-22 10:17 | -39.18834 | 147.68175 | 6060 ft | 145 kts | 345° |
| 2026-04-22 10:17 | -39.17516 | 147.67772 | 6055 ft | 145 kts | 345° |
| 2026-04-22 10:17 | -39.16854 | 147.67570 | 6056 ft | 145 kts | 345° |
| 2026-04-22 10:18 | -39.15875 | 147.67273 | 6055 ft | 145 kts | 345° |
| 2026-04-22 10:18 | -39.14886 | 147.66972 | 6051 ft | 145 kts | 345° |
| 2026-04-22 10:18 | -39.13896 | 147.66673 | 6052 ft | 145 kts | 345° |
| 2026-04-22 10:18 | -39.12915 | 147.66377 | 6051 ft | 146 kts | 344° |
| 2026-04-22 10:19 | -39.11924 | 147.66077 | 6051 ft | 146 kts | 344° |
| 2026-04-22 10:19 | -39.10932 | 147.65778 | 6049 ft | 146 kts | 344° |
| 2026-04-22 10:19 | -39.09946 | 147.65479 | 6050 ft | 145 kts | 345° |
| 2026-04-22 10:19 | -39.08961 | 147.65179 | 6050 ft | 145 kts | 345° |
| 2026-04-22 10:20 | -39.07976 | 147.64882 | 6052 ft | 145 kts | 345° |
| 2026-04-22 10:20 | -39.06982 | 147.64583 | 6053 ft | 145 kts | 345° |
| 2026-04-22 10:20 | -39.05989 | 147.64284 | 6050 ft | 146 kts | 345° |
| 2026-04-22 10:20 | -39.05000 | 147.63983 | 6049 ft | 145 kts | 345° |
| 2026-04-22 10:21 | -39.04014 | 147.63686 | 6050 ft | 145 kts | 345° |
| 2026-04-22 10:21 | -39.03040 | 147.63391 | 6051 ft | 145 kts | 345° |
| 2026-04-22 10:21 | -39.02054 | 147.63092 | 6051 ft | 145 kts | 345° |
| 2026-04-22 10:21 | -39.00734 | 147.62694 | 6052 ft | 145 kts | 345° |
| 2026-04-22 10:22 | -39.00073 | 147.62495 | 6054 ft | 145 kts | 345° |
| 2026-04-22 10:22 | -38.99091 | 147.62198 | 6053 ft | 145 kts | 345° |
| 2026-04-22 10:22 | -38.98118 | 147.61903 | 6055 ft | 145 kts | 345° |
| 2026-04-22 10:22 | -38.97135 | 147.61607 | 6058 ft | 144 kts | 345° |
| 2026-04-22 10:23 | -38.96155 | 147.61313 | 6058 ft | 145 kts | 345° |
| 2026-04-22 10:23 | -38.95161 | 147.61015 | 6059 ft | 145 kts | 345° |
| 2026-04-22 10:23 | -38.94171 | 147.60718 | 6060 ft | 145 kts | 345° |
| 2026-04-22 10:23 | -38.93191 | 147.60422 | 6061 ft | 145 kts | 345° |
| 2026-04-22 10:24 | -38.92200 | 147.60123 | 6062 ft | 145 kts | 346° |
| 2026-04-22 10:24 | -38.90884 | 147.59726 | 6059 ft | 145 kts | 345° |
| 2026-04-22 10:24 | -38.90236 | 147.59532 | 6060 ft | 145 kts | 345° |
| 2026-04-22 10:24 | -38.89246 | 147.59235 | 6060 ft | 145 kts | 345° |
| 2026-04-22 10:25 | -38.88248 | 147.58934 | 6061 ft | 145 kts | 345° |
| 2026-04-22 10:25 | -38.87271 | 147.58641 | 6062 ft | 145 kts | 345° |
| 2026-04-22 10:25 | -38.85960 | 147.58246 | 6066 ft | 144 kts | 345° |
| 2026-04-22 10:25 | -38.85305 | 147.58049 | 6064 ft | 145 kts | 345° |
| 2026-04-22 10:26 | -38.84314 | 147.57752 | 6060 ft | 145 kts | 345° |
| 2026-04-22 10:26 | -38.83334 | 147.57457 | 6059 ft | 145 kts | 345° |
| 2026-04-22 10:26 | -38.82361 | 147.57164 | 6059 ft | 144 kts | 345° |
| 2026-04-22 10:26 | -38.81375 | 147.56869 | 6058 ft | 145 kts | 345° |
| 2026-04-22 10:27 | -38.80064 | 147.56479 | 6058 ft | 145 kts | 346° |
| 2026-04-22 10:27 | -38.79395 | 147.56277 | 6058 ft | 145 kts | 346° |
| 2026-04-22 10:27 | -38.78418 | 147.55984 | 6059 ft | 145 kts | 345° |
| 2026-04-22 10:27 | -38.77425 | 147.55687 | 6059 ft | 146 kts | 345° |
| 2026-04-22 10:28 | -38.76442 | 147.55391 | 6062 ft | 146 kts | 346° |
| 2026-04-22 10:28 | -38.75451 | 147.55096 | 6057 ft | 146 kts | 345° |
| 2026-04-22 10:28 | -38.74460 | 147.54803 | 6059 ft | 146 kts | 345° |
| 2026-04-22 10:28 | -38.73468 | 147.54509 | 6058 ft | 145 kts | 345° |
| 2026-04-22 10:29 | -38.72482 | 147.54215 | 6059 ft | 145 kts | 345° |
| 2026-04-22 10:29 | -38.71504 | 147.53923 | 6059 ft | 145 kts | 345° |
| 2026-04-22 10:29 | -38.70522 | 147.53630 | 6060 ft | 144 kts | 345° |
| 2026-04-22 10:29 | -38.69543 | 147.53337 | 6059 ft | 144 kts | 345° |
| 2026-04-22 10:30 | -38.68553 | 147.53043 | 6056 ft | 145 kts | 346° |
| 2026-04-22 10:30 | -38.67571 | 147.52750 | 6058 ft | 145 kts | 346° |
| 2026-04-22 10:30 | -38.66586 | 147.52457 | 6058 ft | 145 kts | 346° |
| 2026-04-22 10:30 | -38.65609 | 147.52165 | 6054 ft | 145 kts | 346° |
| 2026-04-22 10:31 | -38.64624 | 147.51872 | 6061 ft | 145 kts | 346° |
| 2026-04-22 10:31 | -38.63636 | 147.51578 | 6059 ft | 145 kts | 346° |
| 2026-04-22 10:31 | -38.62648 | 147.51283 | 6059 ft | 145 kts | 346° |
| 2026-04-22 10:31 | -38.61662 | 147.50987 | 6063 ft | 145 kts | 346° |
| 2026-04-22 10:32 | -38.60684 | 147.50696 | 6058 ft | 145 kts | 346° |
| 2026-04-22 10:32 | -38.59694 | 147.50403 | 6058 ft | 145 kts | 346° |
| 2026-04-22 10:32 | -38.58712 | 147.50111 | 6060 ft | 145 kts | 345° |
| 2026-04-22 10:32 | -38.57395 | 147.49719 | 6058 ft | 145 kts | 345° |
| 2026-04-22 10:33 | -38.56741 | 147.49525 | 6061 ft | 145 kts | 345° |
| 2026-04-22 10:33 | -38.55763 | 147.49234 | 6056 ft | 144 kts | 345° |
| 2026-04-22 10:33 | -38.54780 | 147.48941 | 6058 ft | 144 kts | 345° |
| 2026-04-22 10:33 | -38.53793 | 147.48647 | 6060 ft | 145 kts | 345° |
| 2026-04-22 10:34 | -38.52818 | 147.48338 | 6022 ft | 147 kts | 344° |
| 2026-04-22 10:34 | -38.51805 | 147.48012 | 5898 ft | 151 kts | 344° |
| 2026-04-22 10:34 | -38.50780 | 147.47679 | 5776 ft | 152 kts | 344° |
| 2026-04-22 10:34 | -38.49749 | 147.47353 | 5654 ft | 153 kts | 345° |
| 2026-04-22 10:35 | -38.48708 | 147.47031 | 5529 ft | 153 kts | 345° |
| 2026-04-22 10:35 | -38.47678 | 147.46718 | 5406 ft | 152 kts | 345° |
| 2026-04-22 10:35 | -38.46644 | 147.46407 | 5282 ft | 152 kts | 345° |
| 2026-04-22 10:35 | -38.45609 | 147.46097 | 5161 ft | 152 kts | 345° |
| 2026-04-22 10:36 | -38.44578 | 147.45790 | 5033 ft | 152 kts | 345° |
| 2026-04-22 10:36 | -38.43206 | 147.45383 | 4891 ft | 151 kts | 345° |
| 2026-04-22 10:36 | -38.42524 | 147.45181 | 4810 ft | 152 kts | 345° |
| 2026-04-22 10:36 | -38.41489 | 147.44873 | 4685 ft | 152 kts | 345° |
| 2026-04-22 10:37 | -38.40465 | 147.44568 | 4566 ft | 152 kts | 345° |
| 2026-04-22 10:37 | -38.38393 | 147.43951 | 4319 ft | 152 kts | 345° |
| 2026-04-22 10:37 | -38.37368 | 147.43602 | 4194 ft | 152 kts | 335° |
| 2026-04-22 10:38 | -38.36488 | 147.42873 | 4090 ft | 151 kts | 320° |
| 2026-04-22 10:38 | -38.35681 | 147.42027 | 3971 ft | 152 kts | 317° |
| 2026-04-22 10:38 | -38.34901 | 147.41132 | 3789 ft | 147 kts | 313° |
| 2026-04-22 10:38 | -38.34157 | 147.40250 | 3672 ft | 146 kts | 314° |
| 2026-04-22 10:39 | -38.33393 | 147.39377 | 3542 ft | 147 kts | 314° |
| 2026-04-22 10:39 | -38.32618 | 147.38518 | 3401 ft | 146 kts | 315° |
| 2026-04-22 10:39 | -38.31842 | 147.37685 | 3266 ft | 144 kts | 316° |
| 2026-04-22 10:39 | -38.31067 | 147.36867 | 3137 ft | 145 kts | 316° |
| 2026-04-22 10:40 | -38.30036 | 147.35783 | 2963 ft | 144 kts | 317° |
| 2026-04-22 10:40 | -38.29518 | 147.35240 | 2879 ft | 144 kts | 317° |
| 2026-04-22 10:40 | -38.28469 | 147.34145 | 2690 ft | 147 kts | 316° |
| 2026-04-22 10:40 | -38.27963 | 147.33604 | 2622 ft | 140 kts | 320° |
| 2026-04-22 10:41 | -38.27198 | 147.32837 | 2494 ft | 140 kts | 320° |
| 2026-04-22 10:41 | -38.26430 | 147.32069 | 2369 ft | 140 kts | 321° |
| 2026-04-22 10:41 | -38.25671 | 147.31300 | 2241 ft | 139 kts | 320° |
| 2026-04-22 10:41 | -38.24663 | 147.30260 | 2068 ft | 138 kts | 320° |
| 2026-04-22 10:42 | -38.23933 | 147.29506 | 2058 ft | 132 kts | 321° |
| 2026-04-22 10:42 | -38.23215 | 147.28775 | 2056 ft | 130 kts | 322° |
| 2026-04-22 10:42 | -38.22509 | 147.28059 | 2058 ft | 130 kts | 322° |
| 2026-04-22 10:42 | -38.21804 | 147.27339 | 2057 ft | 130 kts | 321° |
| 2026-04-22 10:43 | -38.21338 | 147.26849 | 2045 ft | 128 kts | 319° |
| 2026-04-22 10:43 | -38.20666 | 147.26097 | 1907 ft | 130 kts | 316° |
| 2026-04-22 10:43 | -38.19751 | 147.25052 | 1718 ft | 131 kts | 317° |
| 2026-04-22 10:43 | -38.19058 | 147.24286 | 1584 ft | 132 kts | 317° |
| 2026-04-22 10:44 | -38.18359 | 147.23531 | 1447 ft | 132 kts | 318° |
| 2026-04-22 10:44 | -38.17665 | 147.22777 | 1263 ft | 130 kts | 315° |
| 2026-04-22 10:44 | -38.16998 | 147.22026 | 1121 ft | 125 kts | 314° |
| 2026-04-22 10:44 | -38.16346 | 147.21312 | 1046 ft | 118 kts | 317° |
| 2026-04-22 10:45 | -38.15730 | 147.20677 | 1048 ft | 112 kts | 319° |
| 2026-04-22 10:45 | -38.15322 | 147.20271 | 1043 ft | 110 kts | 319° |
| 2026-04-22 10:45 | -38.14539 | 147.19490 | 1046 ft | 102 kts | 319° |
| 2026-04-22 10:45 | -38.13987 | 147.18936 | 1049 ft | 98 kts | 319° |
| 2026-04-22 10:46 | -38.13454 | 147.18404 | 1053 ft | 98 kts | 320° |
| 2026-04-22 10:46 | -38.13092 | 147.18041 | 1051 ft | 98 kts | 319° |
| 2026-04-22 10:46 | -38.12589 | 147.17502 | 1048 ft | 89 kts | 314° |
| 2026-04-22 10:46 | -38.12144 | 147.16972 | 1068 ft | 89 kts | 311° |
| 2026-04-22 10:47 | -38.11729 | 147.16374 | 947 ft | 89 kts | 311° |
| 2026-04-22 10:47 | -38.11346 | 147.15793 | 858 ft | 80 kts | 313° |
| 2026-04-22 10:47 | -38.10838 | 147.15170 | 680 ft | 74 kts | 324° |
| 2026-04-22 10:47 | -38.10449 | 147.14766 | 545 ft | 71 kts | 326° |
| 2026-04-22 10:48 | -38.10035 | 147.14401 | 516 ft | 71 kts | 333° |
| 2026-04-22 10:48 | -38.09624 | 147.14149 | 542 ft | 61 kts | 345° |
| 2026-04-22 10:48 | -38.09375 | 147.14029 | 570 ft | 53 kts | 348° |
| 2026-04-22 10:48 | -38.09030 | 147.13798 | 501 ft | 60 kts | 310° |
| 2026-04-22 10:49 | -38.08824 | 147.13080 | 431 ft | 65 kts | 290° |
| 2026-04-22 10:49 | -38.08762 | 147.12555 | 400 ft | 54 kts | 238° |
| 2026-04-22 10:49 | -38.08929 | 147.12343 | 365 ft | 52 kts | 193° |
| 2026-04-22 10:49 | -38.09409 | 147.12364 | 240 ft | 53 kts | 127° |
| 2026-04-22 10:50 | -38.09567 | 147.12735 | 115 ft | 47 kts | 100° |
| 2026-04-22 10:50 | -38.09666 | 147.12958 | 79 ft | 36 kts | 102° |
| 2026-04-22 10:50 | -38.09766 | 147.13202 | 79 ft | 20 kts | 107° |
| 2026-04-22 10:50 | -38.09815 | 147.13321 | 82 ft | 21 kts | 98° |
| 2026-04-22 10:51 | -38.09851 | 147.13446 | 40 ft | 10 kts | 110° |
| 2026-04-22 10:51 | -38.09889 | 147.13501 | 30 ft | 0 kts | 16° |
| 2026-04-22 10:51 | -38.09888 | 147.13503 | 29 ft | 0 kts | 12° |